createdAt,value
2022-12-08T00:01:21.371Z,92.85
2022-12-08T00:03:49.985Z,93.84
2022-12-08T00:06:38.536Z,93.98
2022-12-08T00:09:23.958Z,93.76
2022-12-08T00:11:52.037Z,92.90
2022-12-08T00:14:19.355Z,92.32
2022-12-08T00:16:46.521Z,91.47
2022-12-08T00:19:13.845Z,90.48
2022-12-08T00:21:41.066Z,90.86
2022-12-08T00:24:08.186Z,91.18
2022-12-08T00:26:35.336Z,90.97
2022-12-08T00:29:02.612Z,91.20
2022-12-08T00:31:29.695Z,90.75
2022-12-08T00:33:57.126Z,91.24
2022-12-08T00:36:24.156Z,91.19
2022-12-08T00:38:51.556Z,91.87
2022-12-08T00:41:43.575Z,91.16
2022-12-08T00:44:13.935Z,91.28
2022-12-08T00:46:41.474Z,91.90
2022-12-08T00:49:09.785Z,92.33
2022-12-08T00:51:37.536Z,92.00
2022-12-08T00:54:05.760Z,93.08
2022-12-08T00:56:33.296Z,92.41
2022-12-08T00:59:00.863Z,93.12
2022-12-08T01:01:28.213Z,93.12
2022-12-08T01:03:55.775Z,93.62
2022-12-08T01:06:23.033Z,93.45
2022-12-08T01:08:50.194Z,93.50
2022-12-08T01:11:19.245Z,93.53
2022-12-08T01:13:47.316Z,93.42
2022-12-08T01:16:25.737Z,93.51
2022-12-08T01:18:53.373Z,94.14
2022-12-08T01:21:20.881Z,93.70
2022-12-08T01:23:48.016Z,93.62
2022-12-08T01:26:16.453Z,94.02
2022-12-08T01:28:43.973Z,93.20
2022-12-08T01:31:16.995Z,93.80
2022-12-08T01:33:44.315Z,92.89
2022-12-08T01:36:38.633Z,93.83
2022-12-08T01:39:07.837Z,92.44
2022-12-08T01:41:37.602Z,92.85
2022-12-08T01:44:13.705Z,91.85
2022-12-08T01:46:45.684Z,92.15
2022-12-08T01:49:22.836Z,90.76
2022-12-08T01:51:55.533Z,90.93
2022-12-08T01:54:22.715Z,89.44
2022-12-08T01:56:52.295Z,89.88
2022-12-08T01:59:20.373Z,90.29
2022-12-08T02:01:51.804Z,90.60
2022-12-08T02:04:19.034Z,90.93
2022-12-08T02:06:47.384Z,90.32
2022-12-08T02:09:14.734Z,89.20
2022-12-08T02:11:41.996Z,91.09
2022-12-08T02:14:10.436Z,90.19
2022-12-08T02:16:52.676Z,90.76
2022-12-08T02:19:55.195Z,90.75
2022-12-08T02:22:47.935Z,90.43
2022-12-08T02:25:34.052Z,89.93
2022-12-08T02:28:28.643Z,91.82
2022-12-08T02:31:12.381Z,91.30
2022-12-08T02:33:58.258Z,91.99
2022-12-08T02:36:40.355Z,91.70
2022-12-08T02:39:25.537Z,91.41
2022-12-08T02:42:16.674Z,92.36
2022-12-08T02:44:48.994Z,92.74
2022-12-08T02:47:20.975Z,92.96
2022-12-08T02:49:48.564Z,93.12
2022-12-08T02:52:15.376Z,91.89
2022-12-08T02:54:46.146Z,91.83
2022-12-08T02:57:32.378Z,91.44
2022-12-08T03:00:11.449Z,91.89
2022-12-08T03:02:57.077Z,91.79
2022-12-08T03:05:57.938Z,92.44
2022-12-08T03:08:28.073Z,90.84
2022-12-08T03:11:11.415Z,91.82
2022-12-08T03:13:46.315Z,90.56
2022-12-08T03:16:16.779Z,91.08
2022-12-08T03:18:50.121Z,91.37
2022-12-08T03:21:18.825Z,90.66
2022-12-08T03:23:47.136Z,92.23
2022-12-08T03:26:34.162Z,92.00
2022-12-08T03:29:01.635Z,92.00
2022-12-08T03:31:33.897Z,91.66
2022-12-08T03:34:01.869Z,92.38
2022-12-08T03:36:29.236Z,90.70
2022-12-08T03:38:56.697Z,90.68
2022-12-08T03:41:23.828Z,90.91
2022-12-08T03:44:01.006Z,91.23
2022-12-08T03:48:55.465Z,91.77
2022-12-08T03:51:23.387Z,92.06
2022-12-08T03:53:50.935Z,92.91
2022-12-08T03:56:31.076Z,92.71
2022-12-08T03:58:58.834Z,92.93
2022-12-08T04:01:25.917Z,92.46
2022-12-08T04:03:53.405Z,92.78
2022-12-08T04:06:21.136Z,91.81
2022-12-08T04:08:49.435Z,90.82
2022-12-08T04:11:17.316Z,90.64
2022-12-08T04:13:44.876Z,89.24
2022-12-08T04:16:16.770Z,90.42
2022-12-08T04:18:44.279Z,90.10
2022-12-08T04:21:11.454Z,89.67
2022-12-08T04:23:38.630Z,90.48
2022-12-08T04:26:06.493Z,90.43
2022-12-08T04:28:33.606Z,90.35
2022-12-08T04:31:00.963Z,90.47
2022-12-08T04:33:28.599Z,91.38
2022-12-08T04:35:55.774Z,92.61
2022-12-08T04:38:23.526Z,92.75
2022-12-08T04:40:50.496Z,92.65
2022-12-08T04:43:17.974Z,91.63
2022-12-08T04:45:44.885Z,91.04
2022-12-08T04:48:14.774Z,91.16
2022-12-08T04:50:43.972Z,91.81
2022-12-08T04:53:12.056Z,92.01
2022-12-08T04:55:44.555Z,91.42
2022-12-08T04:58:15.815Z,91.97
2022-12-08T05:00:43.479Z,92.51
2022-12-08T05:03:10.452Z,92.85
2022-12-08T05:05:37.544Z,93.00
2022-12-08T05:08:05.316Z,92.98
2022-12-08T05:10:33.239Z,93.30
2022-12-08T05:13:00.916Z,93.70
2022-12-08T05:15:28.075Z,93.15
2022-12-08T05:17:55.414Z,93.31
2022-12-08T05:20:23.014Z,93.85
2022-12-08T05:22:50.213Z,93.42
2022-12-08T05:25:17.496Z,93.86
2022-12-08T05:27:45.170Z,93.71
2022-12-08T05:30:12.405Z,94.69
2022-12-08T05:32:39.377Z,93.54
2022-12-08T05:35:07.314Z,94.04
2022-12-08T05:37:34.224Z,94.42
2022-12-08T05:40:01.256Z,93.87
2022-12-08T05:42:28.666Z,93.98
2022-12-08T05:44:55.923Z,92.87
2022-12-08T05:47:22.814Z,92.72
2022-12-08T05:49:50.215Z,92.50
2022-12-08T05:52:18.004Z,93.90
2022-12-08T05:54:45.487Z,92.36
2022-12-08T05:57:12.514Z,92.57
2022-12-08T05:59:39.906Z,92.55
2022-12-08T06:02:09.324Z,92.48
2022-12-08T06:04:36.956Z,92.00
2022-12-08T06:07:04.597Z,92.61
2022-12-08T06:09:31.893Z,92.66
2022-12-08T06:11:59.212Z,92.62
2022-12-08T06:14:26.374Z,92.85
2022-12-08T06:16:53.544Z,91.98
2022-12-08T06:19:20.895Z,93.45
2022-12-08T06:21:48.274Z,93.54
2022-12-08T06:24:15.178Z,92.69
2022-12-08T06:26:42.575Z,92.03
2022-12-08T06:29:09.553Z,92.19
2022-12-08T06:31:36.751Z,92.45
2022-12-08T06:34:04.134Z,93.28
2022-12-08T06:36:31.240Z,92.49
2022-12-08T06:38:58.810Z,92.15
2022-12-08T06:41:25.813Z,93.24
2022-12-08T06:43:52.957Z,92.54
2022-12-08T06:46:20.949Z,92.62
2022-12-08T06:48:48.460Z,93.56
2022-12-08T06:51:17.746Z,93.17
2022-12-08T06:53:45.393Z,92.41
2022-12-08T06:56:13.426Z,92.74
2022-12-08T06:58:40.776Z,92.80
2022-12-08T07:01:13.422Z,93.07
2022-12-08T07:03:41.327Z,92.85
2022-12-08T07:06:08.807Z,92.77
2022-12-08T07:08:35.750Z,93.73
2022-12-08T07:11:10.358Z,93.67
2022-12-08T07:13:37.428Z,92.96
2022-12-08T07:16:09.156Z,93.90
2022-12-08T07:18:37.158Z,92.81
2022-12-08T07:21:06.456Z,92.83
2022-12-08T07:23:34.015Z,93.06
2022-12-08T07:26:05.394Z,92.50
2022-12-08T07:28:33.697Z,92.64
2022-12-08T07:31:00.882Z,93.32
2022-12-08T07:33:28.328Z,92.84
2022-12-08T07:35:57.223Z,92.87
2022-12-08T07:38:24.741Z,92.21
2022-12-08T07:40:52.283Z,93.03
2022-12-08T07:43:19.340Z,92.90
2022-12-08T07:45:46.394Z,93.39
2022-12-08T07:48:13.767Z,93.23
2022-12-08T07:50:40.969Z,93.24
2022-12-08T07:53:08.379Z,93.47
2022-12-08T07:55:35.686Z,92.42
2022-12-08T07:58:03.309Z,93.28
2022-12-08T08:00:30.538Z,92.59
2022-12-08T08:02:57.935Z,92.27
2022-12-08T08:05:25.156Z,92.97
2022-12-08T08:07:52.490Z,92.75
2022-12-08T08:10:19.887Z,92.20
2022-12-08T08:12:47.799Z,91.59
2022-12-08T08:15:15.264Z,91.45
2022-12-08T08:17:42.585Z,92.69
2022-12-08T08:20:10.518Z,92.61
2022-12-08T08:22:38.091Z,91.52
2022-12-08T08:25:06.026Z,92.68
2022-12-08T08:27:34.467Z,92.58
2022-12-08T08:30:01.736Z,92.65
2022-12-08T08:32:33.066Z,92.25
2022-12-08T08:35:00.561Z,91.99
2022-12-08T08:37:27.947Z,91.83
2022-12-08T08:39:55.252Z,92.04
2022-12-08T08:42:23.018Z,91.76
2022-12-08T08:44:51.467Z,90.55
2022-12-08T08:47:18.848Z,91.82
2022-12-08T08:49:47.109Z,92.03
2022-12-08T08:52:14.749Z,92.54
2022-12-08T08:54:44.350Z,93.30
2022-12-08T08:57:12.870Z,92.55
2022-12-08T08:59:41.416Z,91.49
2022-12-08T09:02:14.380Z,92.00
2022-12-08T09:04:42.160Z,90.13
2022-12-08T09:07:09.546Z,91.76
2022-12-08T09:09:39.587Z,92.14
2022-12-08T09:12:07.760Z,92.44
2022-12-08T09:14:36.018Z,92.23
2022-12-08T09:17:03.362Z,92.27
2022-12-08T09:19:30.708Z,92.25
2022-12-08T09:21:58.089Z,92.48
2022-12-08T09:24:27.707Z,91.74
2022-12-08T09:26:54.906Z,92.44
2022-12-08T09:29:22.268Z,91.92
2022-12-08T09:31:49.786Z,92.47
2022-12-08T09:34:19.470Z,92.57
2022-12-08T09:36:47.111Z,92.48
2022-12-08T09:39:15.247Z,92.25
2022-12-08T09:41:51.971Z,91.65
2022-12-08T09:44:49.047Z,91.42
2022-12-08T09:47:35.460Z,92.73
2022-12-08T09:50:29.279Z,92.70
2022-12-08T09:53:11.974Z,92.75
2022-12-08T09:55:43.767Z,92.21
2022-12-08T09:58:18.488Z,91.91
2022-12-08T10:00:46.651Z,91.00
2022-12-08T10:03:17.031Z,91.76
2022-12-08T10:05:55.175Z,90.60
2022-12-08T10:08:31.159Z,91.92
2022-12-08T10:11:00.389Z,91.05
2022-12-08T10:13:45.246Z,90.63
2022-12-08T10:16:28.137Z,91.33
2022-12-08T10:19:02.570Z,90.87
2022-12-08T10:21:30.608Z,91.19
2022-12-08T10:24:05.188Z,91.43
2022-12-08T10:26:33.302Z,91.07
2022-12-08T10:29:02.941Z,91.53
2022-12-08T10:31:32.716Z,91.85
2022-12-08T10:34:01.636Z,91.54
2022-12-08T10:36:58.688Z,91.75
2022-12-08T10:39:39.587Z,91.70
2022-12-08T10:42:16.126Z,91.53
2022-12-08T10:45:00.141Z,91.32
2022-12-08T10:47:28.286Z,92.42
2022-12-08T10:50:10.668Z,90.99
2022-12-08T10:52:40.099Z,92.50
2022-12-08T10:55:18.610Z,91.33
2022-12-08T10:57:46.228Z,92.59
2022-12-08T11:00:18.797Z,91.46
2022-12-08T11:02:58.727Z,90.67
2022-12-08T11:05:33.565Z,91.03
2022-12-08T11:08:01.224Z,92.13
2022-12-08T11:10:43.437Z,91.67
2022-12-08T11:13:20.257Z,90.58
2022-12-08T11:15:47.522Z,91.51
2022-12-08T11:18:39.267Z,91.33
2022-12-08T11:21:10.748Z,90.91
2022-12-08T11:23:38.097Z,91.05
2022-12-08T11:26:17.359Z,90.64
2022-12-08T11:28:44.435Z,90.30
2022-12-08T11:31:34.897Z,89.74
2022-12-08T11:34:02.737Z,90.30
2022-12-08T11:36:30.825Z,90.95
2022-12-08T11:39:00.957Z,90.67
2022-12-08T11:41:34.967Z,89.40
2022-12-08T11:44:26.908Z,89.61
2022-12-08T11:47:00.146Z,89.11
2022-12-08T11:49:37.927Z,90.04
2022-12-08T11:52:17.801Z,88.29
2022-12-08T11:55:05.187Z,87.87
2022-12-08T11:57:32.222Z,88.91
2022-12-08T11:59:59.428Z,86.18
2022-12-08T12:02:32.671Z,88.19
2022-12-08T12:05:06.785Z,86.29
2022-12-08T12:08:07.741Z,86.04
2022-12-08T12:10:57.120Z,85.88
2022-12-08T12:13:33.196Z,86.49
2022-12-08T12:16:11.614Z,86.59
2022-12-08T12:18:45.707Z,86.97
2022-12-08T12:21:19.656Z,86.33
2022-12-08T12:23:52.408Z,86.33
2022-12-08T12:26:25.352Z,86.12
2022-12-08T12:28:57.328Z,84.79
2022-12-08T12:31:33.611Z,84.81
2022-12-08T12:34:08.308Z,85.48
2022-12-08T12:36:56.614Z,82.70
2022-12-08T12:39:31.516Z,82.74
2022-12-08T12:42:02.066Z,83.61
2022-12-08T12:44:29.172Z,83.99
2022-12-08T12:46:59.233Z,83.02
2022-12-08T12:49:40.191Z,83.27
2022-12-08T12:52:10.952Z,84.94
2022-12-08T12:54:43.337Z,86.15
2022-12-08T12:57:13.932Z,85.37
2022-12-08T13:00:05.560Z,85.89
2022-12-08T13:02:34.713Z,86.33
2022-12-08T13:05:10.798Z,87.62
2022-12-08T13:07:52.697Z,88.47
2022-12-08T13:10:30.908Z,89.83
2022-12-08T13:13:18.618Z,89.42
2022-12-08T13:16:19.185Z,89.03
2022-12-08T13:18:50.490Z,90.02
2022-12-08T13:21:21.557Z,90.47
2022-12-08T13:24:14.865Z,90.47
2022-12-08T13:26:51.006Z,91.43
2022-12-08T13:29:22.367Z,89.89
2022-12-08T13:32:00.831Z,89.76
2022-12-08T13:34:31.779Z,89.54
2022-12-08T13:37:11.445Z,90.55
2022-12-08T13:39:41.232Z,91.01
2022-12-08T13:42:25.271Z,90.94
2022-12-08T13:45:24.208Z,90.61
2022-12-08T13:53:22.428Z,91.29
2022-12-08T13:57:08.471Z,91.02
2022-12-08T13:59:44.243Z,90.82
2022-12-08T14:02:42.216Z,90.78
2022-12-08T14:05:29.798Z,90.82
2022-12-08T14:11:36.781Z,91.52
2022-12-08T14:15:00.473Z,91.13
2022-12-08T14:17:21.936Z,91.66
2022-12-08T14:19:59.149Z,91.73
2022-12-08T14:22:36.481Z,91.83
2022-12-08T14:25:06.256Z,91.88
2022-12-08T14:27:37.032Z,91.07
2022-12-08T14:30:13.774Z,92.10
2022-12-08T14:33:00.510Z,92.27
2022-12-08T14:35:37.761Z,92.36
2022-12-08T14:38:18.846Z,92.62
2022-12-08T14:41:01.198Z,92.16
2022-12-08T14:43:30.315Z,92.19
2022-12-08T14:46:02.538Z,92.26
2022-12-08T14:48:36.483Z,92.42
2022-12-08T14:51:13.621Z,92.76
2022-12-08T14:53:48.171Z,92.39
2022-12-08T14:56:21.776Z,93.10
2022-12-08T14:59:21.370Z,92.78
2022-12-08T15:01:50.202Z,92.92
2022-12-08T15:04:24.909Z,93.17
2022-12-08T15:06:59.050Z,92.74
2022-12-08T15:09:39.370Z,93.14
2022-12-08T15:12:12.593Z,93.76
2022-12-08T15:15:00.316Z,93.55
2022-12-08T15:17:36.667Z,93.82
2022-12-08T15:20:05.799Z,93.75
2022-12-08T15:22:34.128Z,93.99
2022-12-08T15:25:01.855Z,93.79
2022-12-08T15:27:29.158Z,93.91
2022-12-08T15:30:00.105Z,93.05
2022-12-08T15:32:29.844Z,93.47
2022-12-08T15:34:57.462Z,93.63
2022-12-08T15:37:26.782Z,93.48
2022-12-08T15:39:54.918Z,93.66
2022-12-08T15:42:22.657Z,93.80
2022-12-08T15:45:08.986Z,94.00
2022-12-08T15:47:36.328Z,93.19
2022-12-08T15:50:05.065Z,93.72
2022-12-08T15:52:33.277Z,93.41
2022-12-08T15:55:00.828Z,93.75
2022-12-08T16:00:51.324Z,93.16
2022-12-08T16:07:12.470Z,93.45
2022-12-08T16:09:22.017Z,93.94
2022-12-08T16:12:11.004Z,93.42
2022-12-08T16:17:28.997Z,94.06
2022-12-08T16:19:56.930Z,94.40
2022-12-08T16:25:26.474Z,94.06
2022-12-08T16:28:03.113Z,94.46
2022-12-08T16:30:40.537Z,94.19
2022-12-08T16:44:56.302Z,93.92
2022-12-08T16:47:26.313Z,93.63
2022-12-08T16:49:54.678Z,93.44
2022-12-08T16:52:28.721Z,93.70
2022-12-08T16:54:56.950Z,93.86
2022-12-08T16:57:24.661Z,94.04
2022-12-08T16:59:52.144Z,94.33
2022-12-08T17:02:19.314Z,94.32
2022-12-08T17:04:47.109Z,93.08
2022-12-08T17:07:14.880Z,93.52
2022-12-08T17:09:42.239Z,92.61
2022-12-08T17:12:11.060Z,93.00
2022-12-08T17:14:38.278Z,93.92
2022-12-08T17:17:06.725Z,92.77
2022-12-08T17:19:34.190Z,93.83
2022-12-08T17:22:02.439Z,92.90
2022-12-08T17:24:31.026Z,93.75
2022-12-08T17:27:04.576Z,93.76
2022-12-08T17:29:33.178Z,93.74
2022-12-08T17:32:00.809Z,92.77
2022-12-08T17:34:28.762Z,93.46
2022-12-08T17:36:55.937Z,93.42
2022-12-08T17:39:23.767Z,93.42
2022-12-08T17:41:50.963Z,93.29
2022-12-08T17:44:19.531Z,93.93
2022-12-08T17:46:52.699Z,94.03
2022-12-08T17:49:23.841Z,93.41
2022-12-08T17:51:54.762Z,92.92
2022-12-08T17:54:22.455Z,93.98
2022-12-08T17:56:50.820Z,94.29
2022-12-08T17:59:18.520Z,93.96
2022-12-08T18:01:45.984Z,94.21
2022-12-08T18:04:13.409Z,94.41
2022-12-08T18:06:41.336Z,94.08
2022-12-08T18:09:08.990Z,93.66
2022-12-08T18:11:36.701Z,94.50
2022-12-08T18:14:10.174Z,93.89
2022-12-08T18:16:39.514Z,94.28
2022-12-08T18:19:07.570Z,94.73
2022-12-08T18:21:35.381Z,94.50
2022-12-08T18:24:02.560Z,94.65
2022-12-08T18:26:30.879Z,94.20
2022-12-08T18:28:58.485Z,94.15
2022-12-08T18:31:26.184Z,93.94
2022-12-08T18:33:53.941Z,94.82
2022-12-08T18:36:24.152Z,94.22
2022-12-08T18:38:52.411Z,94.56
2022-12-08T18:41:25.943Z,94.64
2022-12-08T18:43:57.579Z,94.95
2022-12-08T18:46:25.676Z,93.68
2022-12-08T18:48:53.570Z,93.45
2022-12-08T18:51:23.486Z,93.76
2022-12-08T18:53:51.138Z,93.34
2022-12-08T18:56:36.881Z,94.33
2022-12-08T18:59:09.599Z,94.49
2022-12-08T19:01:38.693Z,93.76
2022-12-08T19:06:55.250Z,94.65
2022-12-08T19:09:23.082Z,94.73
2022-12-08T19:11:50.414Z,95.37
2022-12-08T19:14:20.193Z,94.84
2022-12-08T19:16:52.149Z,95.27
2022-12-08T19:19:20.134Z,95.51
2022-12-08T19:21:47.510Z,95.09
2022-12-08T19:24:15.023Z,95.57
2022-12-08T19:26:42.950Z,95.75
2022-12-08T19:29:10.582Z,94.83
2022-12-08T19:31:38.130Z,95.40
2022-12-08T19:34:09.428Z,95.39
2022-12-08T19:36:42.788Z,95.70
2022-12-08T19:39:54.964Z,95.41
2022-12-08T19:42:40.691Z,95.45
2022-12-08T19:45:18.458Z,95.98
2022-12-08T19:47:45.887Z,95.71
2022-12-08T19:50:33.918Z,96.09
2022-12-08T19:53:02.448Z,95.52
2022-12-08T19:55:29.799Z,95.55
2022-12-08T19:57:57.513Z,95.76
2022-12-08T20:00:25.264Z,96.27
2022-12-08T20:02:52.530Z,96.01
2022-12-08T20:05:19.772Z,95.64
2022-12-08T20:07:47.724Z,95.93
2022-12-08T20:10:22.234Z,95.97
2022-12-08T20:12:49.844Z,95.71
2022-12-08T20:15:17.232Z,95.52
2022-12-08T20:17:44.865Z,95.85
2022-12-08T20:20:14.150Z,96.04
2022-12-08T20:22:42.268Z,95.76
2022-12-08T20:25:13.004Z,95.37
2022-12-08T20:27:45.145Z,95.31
2022-12-08T20:30:17.074Z,95.60
2022-12-08T20:32:46.491Z,95.87
2022-12-08T20:35:17.784Z,95.72
2022-12-08T20:37:45.597Z,96.22
2022-12-08T20:40:12.868Z,95.83
2022-12-08T20:42:40.264Z,95.71
2022-12-08T20:45:09.923Z,95.74
2022-12-08T20:47:37.693Z,95.45
2022-12-08T20:50:06.416Z,95.87
2022-12-08T20:52:41.820Z,96.06
2022-12-08T20:55:15.695Z,96.00
2022-12-08T20:57:43.018Z,96.24
2022-12-08T21:00:17.022Z,95.92
2022-12-08T21:02:49.795Z,96.12
2022-12-08T21:05:22.149Z,96.20
2022-12-08T21:07:49.678Z,95.97
2022-12-08T21:10:17.436Z,95.90
2022-12-08T21:12:45.155Z,95.66
2022-12-08T21:15:12.850Z,95.37
2022-12-08T21:17:40.603Z,95.77
2022-12-08T21:20:08.671Z,95.98
2022-12-08T21:22:36.114Z,95.82
2022-12-08T21:25:04.562Z,95.95
2022-12-08T21:27:32.873Z,95.94
2022-12-08T21:30:00.785Z,96.09
2022-12-08T21:32:30.608Z,96.11
2022-12-08T21:34:58.369Z,95.93
2022-12-08T21:37:25.529Z,96.12
2022-12-08T21:39:53.145Z,95.77
2022-12-08T21:42:38.989Z,96.37
2022-12-08T21:45:06.772Z,95.85
2022-12-08T21:47:34.099Z,96.02
2022-12-08T21:50:01.909Z,96.04
2022-12-08T21:52:29.164Z,95.71
2022-12-08T21:54:56.457Z,95.68
2022-12-08T21:57:26.329Z,96.24
2022-12-08T21:59:59.332Z,96.11
2022-12-08T22:02:28.353Z,96.13
2022-12-08T22:04:57.269Z,95.91
2022-12-08T22:07:24.790Z,96.07
2022-12-08T22:09:52.272Z,96.06
2022-12-08T22:12:19.720Z,96.46
2022-12-08T22:14:48.916Z,95.73
2022-12-08T22:17:16.362Z,95.79
2022-12-08T22:19:43.667Z,96.13
2022-12-08T22:22:11.403Z,96.17
2022-12-08T22:24:38.707Z,96.26
2022-12-08T22:27:06.088Z,95.68
2022-12-08T22:29:33.143Z,96.07
2022-12-08T22:32:00.915Z,95.96
2022-12-08T22:34:28.424Z,96.22
2022-12-08T22:36:56.150Z,96.03
2022-12-08T22:39:23.981Z,96.40
2022-12-08T22:41:51.172Z,96.10
2022-12-08T22:44:18.712Z,96.47
2022-12-08T22:46:45.977Z,96.03
2022-12-08T22:49:13.402Z,95.92
2022-12-08T22:51:40.734Z,96.32
2022-12-08T22:54:11.131Z,95.88
2022-12-08T22:56:38.589Z,96.11
2022-12-08T22:59:06.274Z,96.25
2022-12-08T23:01:34.140Z,95.71
2022-12-08T23:04:02.030Z,95.68
2022-12-08T23:06:30.807Z,95.78
2022-12-08T23:08:58.624Z,96.45
2022-12-08T23:11:28.724Z,96.07
2022-12-08T23:13:58.004Z,95.62
2022-12-08T23:16:25.075Z,95.28
2022-12-08T23:18:52.728Z,95.68
2022-12-08T23:21:21.219Z,96.05
2022-12-08T23:23:48.536Z,95.84
2022-12-08T23:26:22.953Z,95.04
2022-12-08T23:28:50.515Z,94.84
2022-12-08T23:31:18.837Z,95.01
2022-12-08T23:33:46.135Z,93.88
2022-12-08T23:36:14.727Z,94.97
2022-12-08T23:38:42.150Z,94.16
2022-12-08T23:41:11.998Z,94.74
2022-12-08T23:43:44.220Z,94.77
2022-12-08T23:46:11.784Z,94.92
2022-12-08T23:48:38.738Z,94.41
2022-12-08T23:51:06.436Z,94.61
2022-12-08T23:53:34.064Z,94.60
2022-12-08T23:56:04.202Z,94.04
2022-12-08T23:58:32.360Z,94.28
